Time;durP1;ratioP1;P1;durP2;ratioP2;P2;SDS_P1;SDS_P2;PMS_P1;PMS_P2;Temp;Humidity;BMP_temperature;BMP_pressure;BME280_temperature;BME280_humidity;BME280_pressure;Samples;Min_cycle;Max_cycle;Signal;HPM_P1;HPM_P2
2022/06/07 00:01:42;;;;;;;13.60;10.50;;;;;;;-128.00;-1.00;-1.00;100159;1299;1003316;-28
2022/06/07 00:04:11;;;;;;;16.90;12.70;;;;;;;-128.00;-1.00;-1.00;100206;1299;1003959;-28
2022/06/07 00:06:40;;;;;;;24.00;20.00;;;;;;;-128.00;-1.00;-1.00;100044;1299;1003732;-28
2022/06/07 00:09:08;;;;;;;14.10;12.40;;;;;;;-128.00;-1.00;-1.00;100148;1299;1003905;-29
2022/06/07 00:11:37;;;;;;;15.40;12.10;;;;;;;-128.00;-1.00;-1.00;100195;1299;1003701;-28
2022/06/07 00:14:06;;;;;;;26.90;18.60;;;;;;;-128.00;-1.00;-1.00;100184;1299;1003039;-28
2022/06/07 00:16:35;;;;;;;20.20;16.00;;;;;;;-128.00;-1.00;-1.00;100172;1299;1003163;-26
2022/06/07 00:19:04;;;;;;;27.60;21.20;;;;;;;-128.00;-1.00;-1.00;100203;1299;1003793;-29
2022/06/07 00:21:33;;;;;;;14.40;12.50;;;;;;;-128.00;-1.00;-1.00;100208;1299;1004663;-29
2022/06/07 00:24:02;;;;;;;14.80;10.30;;;;;;;-128.00;-1.00;-1.00;100208;1299;1004821;-29
2022/06/07 00:26:32;;;;;;;22.70;16.40;;;;;;;-128.00;-1.00;-1.00;100176;1299;1004063;-29
2022/06/07 00:29:00;;;;;;;23.00;16.70;;;;;;;-128.00;-1.00;-1.00;100121;1299;1004227;-25
2022/06/07 00:31:30;;;;;;;15.60;12.70;;;;;;;-128.00;-1.00;-1.00;100078;1299;1003937;-27
2022/06/07 00:33:58;;;;;;;14.00;11.50;;;;;;;-128.00;-1.00;-1.00;100140;1299;1003035;-24
2022/06/07 00:36:27;;;;;;;10.80;9.80;;;;;;;-128.00;-1.00;-1.00;100123;1299;1004683;-24
2022/06/07 00:38:56;;;;;;;14.90;12.00;;;;;;;-128.00;-1.00;-1.00;100118;1299;1004263;-30
2022/06/07 00:41:25;;;;;;;16.50;12.50;;;;;;;-128.00;-1.00;-1.00;100183;1299;1004103;-30
2022/06/07 00:44:01;;;;;;;18.60;15.60;;;;;;;-128.00;-1.00;-1.00;100133;1299;1004244;-25
2022/06/07 00:46:30;;;;;;;20.30;15.20;;;;;;;-128.00;-1.00;-1.00;100165;1299;1003772;-25
2022/06/07 00:48:59;;;;;;;14.50;10.50;;;;;;;-128.00;-1.00;-1.00;100129;1299;1003688;-29
2022/06/07 00:51:28;;;;;;;13.10;10.70;;;;;;;-128.00;-1.00;-1.00;100174;1298;1003658;-24
2022/06/07 00:53:57;;;;;;;14.90;11.60;;;;;;;-128.00;-1.00;-1.00;100207;1299;1004199;-25
2022/06/07 00:56:26;;;;;;;11.40;10.40;;;;;;;-128.00;-1.00;-1.00;100192;1298;1004253;-28
2022/06/07 00:58:55;;;;;;;11.00;10.00;;;;;;;-128.00;-1.00;-1.00;100157;1299;1004129;-28
2022/06/07 01:01:24;;;;;;;13.10;11.60;;;;;;;-128.00;-1.00;-1.00;100147;1299;1003949;-28
2022/06/07 01:03:52;;;;;;;18.50;16.30;;;;;;;-128.00;-1.00;-1.00;100224;1299;1004237;-24
2022/06/07 01:11:26;;;;;;;16.30;14.10;;;;;;;-128.00;-1.00;-1.00;100180;1299;1003390;-28
2022/06/07 01:13:56;;;;;;;19.30;14.20;;;;;;;-128.00;-1.00;-1.00;100155;1297;1004683;-28
2022/06/07 01:16:26;;;;;;;14.60;12.30;;;;;;;-128.00;-1.00;-1.00;100142;1299;1003578;-28
2022/06/07 01:18:54;;;;;;;18.50;11.70;;;;;;;-128.00;-1.00;-1.00;100166;1299;1003837;-25
2022/06/07 01:21:27;;;;;;;16.80;13.70;;;;;;;-128.00;-1.00;-1.00;100223;1299;1004360;-28
2022/06/07 01:23:56;;;;;;;14.10;11.90;;;;;;;-128.00;-1.00;-1.00;100126;1299;1003836;-24
2022/06/07 01:26:25;;;;;;;13.90;12.30;;;;;;;-128.00;-1.00;-1.00;100134;1299;1004600;-30
2022/06/07 01:28:54;;;;;;;14.10;12.10;;;;;;;-128.00;-1.00;-1.00;100147;1299;1003730;-24
2022/06/07 01:31:23;;;;;;;14.20;11.80;;;;;;;-128.00;-1.00;-1.00;100139;1299;1004023;-30
2022/06/07 01:33:52;;;;;;;8.90;8.10;;;;;;;-128.00;-1.00;-1.00;100177;1298;1003893;-28
2022/06/07 01:36:21;;;;;;;14.80;11.70;;;;;;;-128.00;-1.00;-1.00;100136;1299;1004039;-25
2022/06/07 01:44:11;;;;;;;16.30;14.40;;;;;;;-128.00;-1.00;-1.00;100155;1299;1003788;-24
2022/06/07 01:46:40;;;;;;;14.40;12.80;;;;;;;-128.00;-1.00;-1.00;100159;1299;1003948;-27
2022/06/07 01:49:08;;;;;;;22.00;17.70;;;;;;;-128.00;-1.00;-1.00;100132;1299;1003535;-30
2022/06/07 01:51:37;;;;;;;19.60;16.80;;;;;;;-128.00;-1.00;-1.00;100243;1299;1003817;-30
2022/06/07 01:54:06;;;;;;;19.50;17.30;;;;;;;-128.00;-1.00;-1.00;100060;1299;1004449;-28
2022/06/07 01:56:35;;;;;;;32.40;26.30;;;;;;;-128.00;-1.00;-1.00;100182;1298;1004489;-26
2022/06/07 01:59:05;;;;;;;21.00;18.80;;;;;;;-128.00;-1.00;-1.00;100166;1299;1003692;-25
2022/06/07 02:01:34;;;;;;;16.90;14.30;;;;;;;-128.00;-1.00;-1.00;100079;1299;1003399;-26
2022/06/07 02:04:04;;;;;;;14.80;12.80;;;;;;;-128.00;-1.00;-1.00;100169;1298;1003664;-29
2022/06/07 02:06:33;;;;;;;17.20;13.00;;;;;;;-128.00;-1.00;-1.00;100142;1299;1003190;-26
2022/06/07 02:09:02;;;;;;;63.80;45.60;;;;;;;-128.00;-1.00;-1.00;100189;1299;1003665;-28
2022/06/07 02:11:30;;;;;;;42.60;33.60;;;;;;;-128.00;-1.00;-1.00;100045;1299;1004653;-24
2022/06/07 02:13:59;;;;;;;67.00;53.40;;;;;;;-128.00;-1.00;-1.00;100226;1299;1004231;-30
2022/06/07 02:16:28;;;;;;;11.80;10.40;;;;;;;-128.00;-1.00;-1.00;100146;1299;1003837;-26
2022/06/07 02:18:57;;;;;;;15.50;11.60;;;;;;;-128.00;-1.00;-1.00;100145;1299;1004165;-28
2022/06/07 02:21:26;;;;;;;31.80;27.30;;;;;;;-128.00;-1.00;-1.00;100187;1299;1002950;-24
2022/06/07 02:23:55;;;;;;;19.50;14.30;;;;;;;-128.00;-1.00;-1.00;100164;1299;1004339;-24
2022/06/07 02:26:26;;;;;;;15.20;10.80;;;;;;;-128.00;-1.00;-1.00;100207;1299;1003957;-26
2022/06/07 02:28:57;;;;;;;14.70;11.00;;;;;;;-128.00;-1.00;-1.00;100187;1299;1004028;-29
2022/06/07 02:31:27;;;;;;;16.20;13.90;;;;;;;-128.00;-1.00;-1.00;100153;1299;1002664;-25
2022/06/07 02:33:56;;;;;;;36.60;22.40;;;;;;;-128.00;-1.00;-1.00;100193;1296;1004683;-28
2022/06/07 02:36:25;;;;;;;22.40;16.70;;;;;;;-128.00;-1.00;-1.00;100100;1302;1003107;-28
2022/06/07 02:38:54;;;;;;;23.10;17.50;;;;;;;-128.00;-1.00;-1.00;99977;1299;1004115;-25
2022/06/07 02:41:23;;;;;;;12.10;10.80;;;;;;;-128.00;-1.00;-1.00;100121;1299;1003010;-24
2022/06/07 02:43:53;;;;;;;17.10;11.30;;;;;;;-128.00;-1.00;-1.00;100161;1299;1003587;-23
2022/06/07 02:46:22;;;;;;;15.30;10.90;;;;;;;-128.00;-1.00;-1.00;100168;1299;1003852;-28
2022/06/07 02:51:48;;;;;;;15.10;11.50;;;;;;;-128.00;-1.00;-1.00;100119;1299;1003250;-24
2022/06/07 02:54:17;;;;;;;11.20;9.30;;;;;;;-128.00;-1.00;-1.00;100179;1299;1004611;-28
2022/06/07 02:56:46;;;;;;;13.00;11.20;;;;;;;-128.00;-1.00;-1.00;100142;1299;1003925;-28
2022/06/07 02:59:15;;;;;;;12.20;9.20;;;;;;;-128.00;-1.00;-1.00;99983;1299;1004638;-24
2022/06/07 03:04:23;;;;;;;14.80;9.70;;;;;;;-128.00;-1.00;-1.00;100148;1299;1003254;-25
2022/06/07 03:06:52;;;;;;;12.20;8.40;;;;;;;-128.00;-1.00;-1.00;100147;1299;1003829;-28
2022/06/07 03:09:22;;;;;;;10.00;8.60;;;;;;;-128.00;-1.00;-1.00;100171;1299;1003444;-24
2022/06/07 03:11:51;;;;;;;13.20;8.60;;;;;;;-128.00;-1.00;-1.00;100193;1299;1003095;-28
2022/06/07 03:14:20;;;;;;;10.80;9.30;;;;;;;-128.00;-1.00;-1.00;100112;1299;1003401;-25
2022/06/07 03:16:49;;;;;;;20.90;9.90;;;;;;;-128.00;-1.00;-1.00;100123;1299;1003690;-29
2022/06/07 03:19:18;;;;;;;15.30;12.80;;;;;;;-128.00;-1.00;-1.00;100165;1299;1003394;-25
2022/06/07 03:21:48;;;;;;;15.40;10.90;;;;;;;-128.00;-1.00;-1.00;100154;1299;1004459;-25
2022/06/07 03:24:17;;;;;;;16.00;9.80;;;;;;;-128.00;-1.00;-1.00;100162;1299;1003369;-29
2022/06/07 03:26:46;;;;;;;14.30;9.90;;;;;;;-128.00;-1.00;-1.00;100065;1300;1004233;-28
2022/06/07 03:29:15;;;;;;;16.60;12.00;;;;;;;-128.00;-1.00;-1.00;100135;1299;1003194;-24
2022/06/07 03:31:44;;;;;;;16.00;11.70;;;;;;;-128.00;-1.00;-1.00;100193;1299;1003683;-26
2022/06/07 03:36:46;;;;;;;16.10;13.20;;;;;;;-128.00;-1.00;-1.00;100154;1299;1003242;-28
2022/06/07 03:39:15;;;;;;;11.90;10.50;;;;;;;-128.00;-1.00;-1.00;100090;1299;1003930;-24
2022/06/07 03:41:45;;;;;;;18.30;11.90;;;;;;;-128.00;-1.00;-1.00;100148;1299;1003388;-25
2022/06/07 03:44:14;;;;;;;16.50;11.20;;;;;;;-128.00;-1.00;-1.00;100050;1299;1004109;-24
2022/06/07 03:46:44;;;;;;;15.40;11.80;;;;;;;-128.00;-1.00;-1.00;100130;1299;1003032;-24
2022/06/07 03:49:13;;;;;;;14.30;11.60;;;;;;;-128.00;-1.00;-1.00;100166;1299;1003791;-23
2022/06/07 03:51:42;;;;;;;17.40;12.00;;;;;;;-128.00;-1.00;-1.00;100127;1299;1003942;-24
2022/06/07 03:54:12;;;;;;;13.00;11.20;;;;;;;-128.00;-1.00;-1.00;100133;1299;1003226;-28
2022/06/07 03:56:41;;;;;;;12.40;9.70;;;;;;;-128.00;-1.00;-1.00;100144;1299;1003893;-24
2022/06/07 03:59:10;;;;;;;12.70;10.40;;;;;;;-128.00;-1.00;-1.00;100148;1299;1003722;-24
2022/06/07 04:01:39;;;;;;;12.40;9.30;;;;;;;-128.00;-1.00;-1.00;100128;1299;1004217;-30
2022/06/07 04:04:08;;;;;;;11.70;9.10;;;;;;;-128.00;-1.00;-1.00;100193;1299;1004307;-26
2022/06/07 04:06:40;;;;;;;12.90;9.80;;;;;;;-128.00;-1.00;-1.00;100174;1299;1003776;-24
2022/06/07 04:09:09;;;;;;;9.80;8.40;;;;;;;-128.00;-1.00;-1.00;100169;1299;1003353;-24
2022/06/07 04:11:39;;;;;;;11.50;8.30;;;;;;;-128.00;-1.00;-1.00;100211;1299;1003347;-28
2022/06/07 04:14:08;;;;;;;12.60;7.90;;;;;;;-128.00;-1.00;-1.00;100143;1299;1004393;-28
2022/06/07 04:16:37;;;;;;;15.50;8.70;;;;;;;-128.00;-1.00;-1.00;99756;1299;1002957;-28
2022/06/07 04:19:07;;;;;;;10.00;8.40;;;;;;;-128.00;-1.00;-1.00;100151;1299;1004092;-27
2022/06/07 04:21:36;;;;;;;9.50;8.30;;;;;;;-128.00;-1.00;-1.00;100185;1298;1004446;-26
2022/06/07 04:24:05;;;;;;;9.40;7.50;;;;;;;-128.00;-1.00;-1.00;100157;1299;1003402;-26
2022/06/07 04:26:34;;;;;;;8.60;7.00;;;;;;;-128.00;-1.00;-1.00;100098;1297;1003855;-26
2022/06/07 04:29:04;;;;;;;8.00;6.40;;;;;;;-128.00;-1.00;-1.00;100137;1298;1003035;-30
2022/06/07 04:31:33;;;;;;;7.90;7.20;;;;;;;-128.00;-1.00;-1.00;100068;1299;1003908;-26
2022/06/07 04:34:02;;;;;;;12.20;7.00;;;;;;;-128.00;-1.00;-1.00;100122;1299;1003843;-30
2022/06/07 04:36:31;;;;;;;6.20;4.80;;;;;;;-128.00;-1.00;-1.00;100149;1299;1003791;-27
2022/06/07 04:39:00;;;;;;;9.10;6.70;;;;;;;-128.00;-1.00;-1.00;100186;1299;1003796;-30
2022/06/07 04:41:30;;;;;;;8.00;7.10;;;;;;;-128.00;-1.00;-1.00;100184;1299;1003066;-30
2022/06/07 04:43:59;;;;;;;9.00;7.50;;;;;;;-128.00;-1.00;-1.00;100157;1299;1004040;-26
2022/06/07 04:46:28;;;;;;;10.50;6.60;;;;;;;-128.00;-1.00;-1.00;100150;1299;1003408;-30
2022/06/07 04:48:57;;;;;;;7.50;6.70;;;;;;;-128.00;-1.00;-1.00;100189;1299;1003548;-26
2022/06/07 04:51:29;;;;;;;6.40;5.70;;;;;;;-128.00;-1.00;-1.00;100116;1299;1003662;-30
2022/06/07 04:53:59;;;;;;;8.50;7.70;;;;;;;-128.00;-1.00;-1.00;100148;1298;1004179;-28
2022/06/07 04:56:30;;;;;;;16.90;7.60;;;;;;;-128.00;-1.00;-1.00;100150;1299;1003291;-25
2022/06/07 04:59:00;;;;;;;5.80;5.20;;;;;;;-128.00;-1.00;-1.00;100155;1299;1003255;-28
2022/06/07 05:01:32;;;;;;;8.90;6.80;;;;;;;-128.00;-1.00;-1.00;100164;1299;1003825;-25
2022/06/07 05:04:01;;;;;;;6.60;5.40;;;;;;;-128.00;-1.00;-1.00;100176;1299;1003108;-28
2022/06/07 05:06:32;;;;;;;11.30;6.20;;;;;;;-128.00;-1.00;-1.00;100168;1299;1003197;-25
2022/06/07 05:09:04;;;;;;;7.90;6.80;;;;;;;-128.00;-1.00;-1.00;100165;1299;1002928;-24
2022/06/07 05:11:34;;;;;;;8.00;6.70;;;;;;;-128.00;-1.00;-1.00;100203;1298;1003325;-28
2022/06/07 05:14:05;;;;;;;5.90;5.30;;;;;;;-128.00;-1.00;-1.00;100128;1299;1003429;-28
2022/06/07 05:16:37;;;;;;;8.60;7.80;;;;;;;-128.00;-1.00;-1.00;100112;1299;1003763;-28
2022/06/07 05:19:07;;;;;;;9.40;8.40;;;;;;;-128.00;-1.00;-1.00;100106;1298;1005101;-24
2022/06/07 05:21:36;;;;;;;9.80;8.60;;;;;;;-128.00;-1.00;-1.00;100192;1299;1003745;-25
2022/06/07 05:24:05;;;;;;;9.30;8.20;;;;;;;-128.00;-1.00;-1.00;100158;1298;1003688;-28
2022/06/07 05:26:40;;;;;;;8.30;5.90;;;;;;;-128.00;-1.00;-1.00;100235;1299;1003719;-28
2022/06/07 05:29:18;;;;;;;13.10;8.30;;;;;;;-128.00;-1.00;-1.00;100047;1299;1003330;-28
2022/06/07 05:31:47;;;;;;;11.70;6.80;;;;;;;-128.00;-1.00;-1.00;100152;1298;1003344;-28
2022/06/07 05:34:16;;;;;;;9.20;7.00;;;;;;;-128.00;-1.00;-1.00;100084;1299;1004399;-24
2022/06/07 05:36:46;;;;;;;8.70;6.90;;;;;;;-128.00;-1.00;-1.00;100197;1299;1003220;-28
2022/06/07 05:39:20;;;;;;;8.30;7.30;;;;;;;-128.00;-1.00;-1.00;100149;1298;1004458;-28
2022/06/07 05:41:49;;;;;;;13.80;7.30;;;;;;;-128.00;-1.00;-1.00;100089;1298;1003273;-28
2022/06/07 05:44:19;;;;;;;8.80;6.30;;;;;;;-128.00;-1.00;-1.00;100141;1299;1003712;-27
2022/06/07 05:46:49;;;;;;;10.90;7.20;;;;;;;-128.00;-1.00;-1.00;100201;1299;1003981;-28
2022/06/07 05:49:18;;;;;;;9.40;6.90;;;;;;;-128.00;-1.00;-1.00;100162;1298;1003048;-27
2022/06/07 05:51:47;;;;;;;9.30;7.20;;;;;;;-128.00;-1.00;-1.00;100101;1299;1004560;-27
2022/06/07 05:54:18;;;;;;;9.40;5.90;;;;;;;-128.00;-1.00;-1.00;100158;1299;1004518;-28
2022/06/07 05:56:48;;;;;;;8.20;6.10;;;;;;;-128.00;-1.00;-1.00;100157;1299;1003838;-24
2022/06/07 05:59:18;;;;;;;7.70;6.90;;;;;;;-128.00;-1.00;-1.00;100172;1299;1003607;-24
2022/06/07 06:01:47;;;;;;;9.90;8.30;;;;;;;-128.00;-1.00;-1.00;100152;1299;1003715;-27
2022/06/07 06:04:16;;;;;;;8.50;7.50;;;;;;;-128.00;-1.00;-1.00;100107;1299;1003307;-24
2022/06/07 06:06:46;;;;;;;7.70;7.00;;;;;;;-128.00;-1.00;-1.00;100171;1299;1003459;-27
2022/06/07 06:11:47;;;;;;;5.10;4.60;;;;;;;-128.00;-1.00;-1.00;100140;1299;1003976;-27
2022/06/07 06:14:18;;;;;;;5.90;5.20;;;;;;;-128.00;-1.00;-1.00;100180;1299;1003040;-24
2022/06/07 06:16:47;;;;;;;7.30;6.10;;;;;;;-128.00;-1.00;-1.00;100042;1299;1004291;-27
2022/06/07 06:19:17;;;;;;;7.70;7.00;;;;;;;-128.00;-1.00;-1.00;100146;1299;1004274;-28
2022/06/07 06:21:46;;;;;;;5.90;5.50;;;;;;;-128.00;-1.00;-1.00;100162;1299;1003463;-27
2022/06/07 06:24:17;;;;;;;5.50;4.80;;;;;;;-128.00;-1.00;-1.00;100124;1299;1003896;-24
2022/06/07 06:26:46;;;;;;;6.90;5.60;;;;;;;-128.00;-1.00;-1.00;100145;1299;1004505;-27
2022/06/07 06:29:15;;;;;;;6.90;4.90;;;;;;;-128.00;-1.00;-1.00;100164;1298;1004164;-28
2022/06/07 06:31:46;;;;;;;6.60;6.10;;;;;;;-128.00;-1.00;-1.00;100169;1299;1004668;-28
2022/06/07 06:34:15;;;;;;;6.70;5.40;;;;;;;-128.00;-1.00;-1.00;100185;1299;1003726;-28
2022/06/07 06:36:45;;;;;;;9.90;7.20;;;;;;;-128.00;-1.00;-1.00;100168;1299;1003704;-24
2022/06/07 06:39:15;;;;;;;7.20;6.40;;;;;;;-128.00;-1.00;-1.00;100148;1299;1003515;-24
2022/06/07 06:41:46;;;;;;;9.00;6.60;;;;;;;-128.00;-1.00;-1.00;100189;1299;1003635;-28
2022/06/07 06:44:16;;;;;;;6.50;5.90;;;;;;;-128.00;-1.00;-1.00;100151;1299;1004101;-24
2022/06/07 06:46:47;;;;;;;6.40;5.80;;;;;;;-128.00;-1.00;-1.00;100191;1299;1003955;-24
2022/06/07 06:49:18;;;;;;;5.30;4.90;;;;;;;-128.00;-1.00;-1.00;100176;1299;1003656;-24
2022/06/07 06:51:47;;;;;;;6.40;5.20;;;;;;;-128.00;-1.00;-1.00;100184;1299;1003814;-26
2022/06/07 06:54:17;;;;;;;7.30;5.40;;;;;;;-128.00;-1.00;-1.00;100156;1299;1003770;-24
2022/06/07 06:56:47;;;;;;;5.50;5.00;;;;;;;-128.00;-1.00;-1.00;100187;1299;1003726;-28
2022/06/07 06:59:17;;;;;;;4.10;3.80;;;;;;;-128.00;-1.00;-1.00;100158;1299;1003757;-28
2022/06/07 07:01:46;;;;;;;5.40;4.80;;;;;;;-128.00;-1.00;-1.00;100169;1299;1003452;-28
2022/06/07 07:04:17;;;;;;;3.70;3.40;;;;;;;-128.00;-1.00;-1.00;100082;1299;1004883;-24
2022/06/07 07:06:47;;;;;;;8.50;5.80;;;;;;;-128.00;-1.00;-1.00;100133;1299;1003969;-27
2022/06/07 07:09:17;;;;;;;6.70;3.90;;;;;;;-128.00;-1.00;-1.00;100230;1299;1003408;-24
2022/06/07 07:11:48;;;;;;;4.40;3.90;;;;;;;-128.00;-1.00;-1.00;100100;1299;1004454;-28
2022/06/07 07:14:18;;;;;;;7.20;4.20;;;;;;;-128.00;-1.00;-1.00;100128;1299;1003510;-24
2022/06/07 07:16:50;;;;;;;6.60;4.20;;;;;;;-128.00;-1.00;-1.00;100085;1299;1003101;-28
2022/06/07 07:19:20;;;;;;;7.30;5.20;;;;;;;-128.00;-1.00;-1.00;100108;1299;1003382;-24
2022/06/07 07:21:50;;;;;;;5.00;4.50;;;;;;;-128.00;-1.00;-1.00;100155;1299;1003796;-24
2022/06/07 07:24:21;;;;;;;6.50;4.00;;;;;;;-128.00;-1.00;-1.00;100096;1299;1003265;-24
2022/06/07 07:26:51;;;;;;;5.50;2.50;;;;;;;-128.00;-1.00;-1.00;100061;1299;1003612;-28
2022/06/07 07:29:21;;;;;;;6.90;5.50;;;;;;;-128.00;-1.00;-1.00;100178;1299;1003557;-28
2022/06/07 07:31:50;;;;;;;4.20;3.90;;;;;;;-128.00;-1.00;-1.00;100153;1299;1003532;-27
2022/06/07 07:34:20;;;;;;;5.40;4.60;;;;;;;-128.00;-1.00;-1.00;100139;1298;1004768;-28
2022/06/07 07:36:51;;;;;;;4.90;4.30;;;;;;;-128.00;-1.00;-1.00;100144;1299;1003304;-28
2022/06/07 07:39:21;;;;;;;7.70;5.00;;;;;;;-128.00;-1.00;-1.00;100163;1299;1002879;-28
2022/06/07 07:41:51;;;;;;;8.10;6.60;;;;;;;-128.00;-1.00;-1.00;100096;1299;1003933;-28
2022/06/07 07:44:21;;;;;;;7.50;5.10;;;;;;;-128.00;-1.00;-1.00;100096;1299;1003854;-24
2022/06/07 07:46:51;;;;;;;6.00;4.80;;;;;;;-128.00;-1.00;-1.00;100177;1299;1003585;-28
2022/06/07 07:49:21;;;;;;;8.60;5.80;;;;;;;-128.00;-1.00;-1.00;100088;1299;1003357;-25
2022/06/07 07:51:51;;;;;;;6.40;5.70;;;;;;;-128.00;-1.00;-1.00;100183;1299;1003332;-24
2022/06/07 07:54:21;;;;;;;6.80;6.20;;;;;;;-128.00;-1.00;-1.00;100182;1298;1003015;-28
2022/06/07 07:56:51;;;;;;;5.60;4.30;;;;;;;-128.00;-1.00;-1.00;100181;1299;1003888;-28
2022/06/07 07:59:21;;;;;;;5.80;5.30;;;;;;;-128.00;-1.00;-1.00;100177;1299;1003472;-25
2022/06/07 08:01:50;;;;;;;5.90;4.80;;;;;;;-128.00;-1.00;-1.00;100182;1299;1003927;-27
2022/06/07 08:04:19;;;;;;;4.30;3.90;;;;;;;-128.00;-1.00;-1.00;100149;1299;1003385;-24
2022/06/07 08:06:48;;;;;;;4.40;3.80;;;;;;;-128.00;-1.00;-1.00;100160;1299;1005332;-28
2022/06/07 08:09:19;;;;;;;6.10;5.50;;;;;;;-128.00;-1.00;-1.00;100155;1299;1003302;-28
2022/06/07 08:11:49;;;;;;;8.90;4.20;;;;;;;-128.00;-1.00;-1.00;100199;1299;1004187;-28
2022/06/07 08:14:18;;;;;;;4.40;3.80;;;;;;;-128.00;-1.00;-1.00;100090;1299;1003156;-24
2022/06/07 08:16:49;;;;;;;4.80;4.40;;;;;;;-128.00;-1.00;-1.00;100296;1299;1003246;-24
2022/06/07 08:19:18;;;;;;;4.90;3.70;;;;;;;-128.00;-1.00;-1.00;100245;1299;1002629;-28
2022/06/07 08:21:47;;;;;;;3.60;3.20;;;;;;;-128.00;-1.00;-1.00;100255;1299;1003040;-28
2022/06/07 08:24:17;;;;;;;4.90;2.90;;;;;;;-128.00;-1.00;-1.00;100264;1299;1004169;-24
2022/06/07 08:26:54;;;;;;;3.40;2.40;;;;;;;-128.00;-1.00;-1.00;100197;1299;1004083;-24
2022/06/07 08:29:32;;;;;;;4.80;2.80;;;;;;;-128.00;-1.00;-1.00;100178;1299;1003991;-28
2022/06/07 08:32:10;;;;;;;2.80;2.30;;;;;;;-128.00;-1.00;-1.00;100225;1299;1003058;-28
2022/06/07 08:40:15;;;;;;;5.60;2.40;;;;;;;-128.00;-1.00;-1.00;100562;1299;1002349;-25
2022/06/07 08:42:55;;;;;;;3.20;3.00;;;;;;;-128.00;-1.00;-1.00;100275;1299;1003410;-29
2022/06/07 08:45:35;;;;;;;3.10;2.90;;;;;;;-128.00;-1.00;-1.00;100258;1299;1003335;-25
2022/06/07 08:48:16;;;;;;;3.10;2.50;;;;;;;-128.00;-1.00;-1.00;100276;1296;1003297;-28
2022/06/07 08:51:09;;;;;;;3.70;2.10;;;;;;;-128.00;-1.00;-1.00;100241;1299;1003491;-30
2022/06/07 08:53:50;;;;;;;2.40;2.20;;;;;;;-128.00;-1.00;-1.00;100241;1299;1003785;-25
2022/06/07 08:56:32;;;;;;;2.50;2.20;;;;;;;-128.00;-1.00;-1.00;100193;1299;1002522;-24
2022/06/07 08:59:12;;;;;;;3.60;2.30;;;;;;;-128.00;-1.00;-1.00;100248;1299;1002275;-24
2022/06/07 09:01:58;;;;;;;3.00;2.50;;;;;;;-128.00;-1.00;-1.00;100274;1299;1002757;-28
2022/06/07 09:04:36;;;;;;;2.00;1.80;;;;;;;-128.00;-1.00;-1.00;100194;1299;1003005;-24
2022/06/07 09:07:16;;;;;;;3.30;2.50;;;;;;;-128.00;-1.00;-1.00;100144;1299;1003398;-28
2022/06/07 09:12:54;;;;;;;2.70;2.50;;;;;;;-128.00;-1.00;-1.00;100190;1299;1003455;-28
2022/06/07 09:15:32;;;;;;;2.50;1.90;;;;;;;-128.00;-1.00;-1.00;100251;1299;1003380;-24
2022/06/07 09:18:11;;;;;;;4.50;2.20;;;;;;;-128.00;-1.00;-1.00;100267;1299;1002563;-24
2022/06/07 09:20:50;;;;;;;1.60;1.50;;;;;;;-128.00;-1.00;-1.00;100254;1299;1003764;-24
2022/06/07 09:23:31;;;;;;;4.50;2.30;;;;;;;-128.00;-1.00;-1.00;100286;1299;1003623;-24
2022/06/07 09:26:19;;;;;;;2.70;2.40;;;;;;;-128.00;-1.00;-1.00;100226;1299;1002599;-24
2022/06/07 09:29:03;;;;;;;2.40;2.10;;;;;;;-128.00;-1.00;-1.00;100258;1299;1003683;-24
2022/06/07 09:31:42;;;;;;;2.00;1.80;;;;;;;-128.00;-1.00;-1.00;100225;1298;1005043;-30
2022/06/07 09:34:25;;;;;;;2.50;1.90;;;;;;;-128.00;-1.00;-1.00;100248;1299;1002969;-28
2022/06/07 09:37:04;;;;;;;;;;;;;;;-128.00;-1.00;-1.00;100248;1299;1003064;-24
2022/06/07 09:39:43;;;;;;;2.60;2.20;;;;;;;-128.00;-1.00;-1.00;100173;1299;1003299;-27
2022/06/07 09:42:24;;;;;;;2.60;2.40;;;;;;;-128.00;-1.00;-1.00;100234;1299;1003164;-24
2022/06/07 09:45:27;;;;;;;2.10;1.30;;;;;;;-128.00;-1.00;-1.00;100363;1299;1003154;-24
2022/06/07 09:48:11;;;;;;;6.20;1.50;;;;;;;-128.00;-1.00;-1.00;100250;1299;1002810;-24
2022/06/07 09:50:54;;;;;;;1.40;1.30;;;;;;;-128.00;-1.00;-1.00;100152;1298;1003282;-28
2022/06/07 09:53:36;;;;;;;2.10;1.70;;;;;;;-128.00;-1.00;-1.00;100237;1299;1003493;-24
2022/06/07 09:56:17;;;;;;;4.10;1.60;;;;;;;-128.00;-1.00;-1.00;100283;1299;1002764;-28
2022/06/07 09:58:57;;;;;;;2.80;1.60;;;;;;;-128.00;-1.00;-1.00;100263;1299;1002910;-25
2022/06/07 10:01:48;;;;;;;1.60;1.40;;;;;;;-128.00;-1.00;-1.00;100222;1298;1002565;-25
2022/06/07 10:04:33;;;;;;;2.00;1.10;;;;;;;-128.00;-1.00;-1.00;100283;1298;1003091;-28
2022/06/07 10:07:16;;;;;;;1.10;1.00;;;;;;;-128.00;-1.00;-1.00;100213;1299;1003855;-28
2022/06/07 10:10:00;;;;;;;2.00;0.60;;;;;;;-128.00;-1.00;-1.00;100262;1299;1002750;-28
2022/06/07 10:12:46;;;;;;;2.00;1.00;;;;;;;-128.00;-1.00;-1.00;100237;1299;1003364;-24
2022/06/07 10:15:27;;;;;;;1.40;1.30;;;;;;;-128.00;-1.00;-1.00;100126;1299;1003616;-28
2022/06/07 10:18:12;;;;;;;0.80;0.70;;;;;;;-128.00;-1.00;-1.00;100219;1298;1002647;-28
2022/06/07 10:21:08;;;;;;;1.60;1.00;;;;;;;-128.00;-1.00;-1.00;100240;1298;1003559;-24
2022/06/07 10:24:05;;;;;;;2.50;1.10;;;;;;;-128.00;-1.00;-1.00;100236;1299;1003987;-28
2022/06/07 10:27:06;;;;;;;1.00;0.80;;;;;;;-128.00;-1.00;-1.00;100200;1299;1003895;-28
2022/06/07 10:29:56;;;;;;;1.60;1.40;;;;;;;-128.00;-1.00;-1.00;100223;1298;1003048;-28
2022/06/07 10:32:51;;;;;;;1.70;0.70;;;;;;;-128.00;-1.00;-1.00;100213;1299;1004193;-24
2022/06/07 10:35:57;;;;;;;1.30;0.90;;;;;;;-128.00;-1.00;-1.00;100208;1298;1002851;-28
2022/06/07 10:38:40;;;;;;;2.90;0.80;;;;;;;-128.00;-1.00;-1.00;100072;1299;1004513;-24
2022/06/07 10:41:32;;;;;;;1.40;0.90;;;;;;;-128.00;-1.00;-1.00;100309;1299;1002843;-24
2022/06/07 10:44:18;;;;;;;0.50;0.40;;;;;;;-128.00;-1.00;-1.00;100190;1299;1004048;-28
2022/06/07 10:46:55;;;;;;;0.90;0.80;;;;;;;-128.00;-1.00;-1.00;100293;1299;1004918;-24
2022/06/07 10:49:37;;;;;;;1.80;1.00;;;;;;;-128.00;-1.00;-1.00;100211;1299;1003288;-24
2022/06/07 10:52:41;;;;;;;1.40;0.90;;;;;;;-128.00;-1.00;-1.00;100225;1299;1003351;-24
2022/06/07 10:55:23;;;;;;;1.00;0.90;;;;;;;-128.00;-1.00;-1.00;100207;1299;1003322;-28
2022/06/07 10:58:07;;;;;;;0.90;0.80;;;;;;;-128.00;-1.00;-1.00;100236;1299;1002907;-27
2022/06/07 11:00:49;;;;;;;0.90;0.60;;;;;;;-128.00;-1.00;-1.00;100236;1299;1003134;-28
2022/06/07 11:03:50;;;;;;;1.80;1.10;;;;;;;-128.00;-1.00;-1.00;100309;1299;1004172;-24
2022/06/07 11:09:23;;;;;;;0.90;0.60;;;;;;;-128.00;-1.00;-1.00;100302;1298;1002885;-25
2022/06/07 11:12:02;;;;;;;1.20;0.80;;;;;;;-128.00;-1.00;-1.00;100404;1299;1003597;-29
2022/06/07 11:14:47;;;;;;;0.60;0.60;;;;;;;-128.00;-1.00;-1.00;100234;1299;1004268;-29
2022/06/07 11:17:30;;;;;;;0.90;0.40;;;;;;;-128.00;-1.00;-1.00;100230;1299;1002997;-29
2022/06/07 11:20:15;;;;;;;0.90;0.80;;;;;;;-128.00;-1.00;-1.00;100243;1299;1003332;-29
2022/06/07 11:23:02;;;;;;;1.00;0.60;;;;;;;-128.00;-1.00;-1.00;100191;1299;1003255;-23
2022/06/07 11:25:49;;;;;;;1.50;1.30;;;;;;;-128.00;-1.00;-1.00;100221;1299;1004114;-28
2022/06/07 11:28:30;;;;;;;1.40;0.80;;;;;;;-128.00;-1.00;-1.00;100221;1299;1002972;-28
2022/06/07 11:31:15;;;;;;;3.20;0.80;;;;;;;-128.00;-1.00;-1.00;100262;1299;1002998;-24
2022/06/07 11:33:52;;;;;;;0.90;0.90;;;;;;;-128.00;-1.00;-1.00;100144;1299;1002894;-28
2022/06/07 11:36:34;;;;;;;1.50;1.10;;;;;;;-128.00;-1.00;-1.00;100162;1299;1003194;-28
2022/06/07 11:39:31;;;;;;;0.90;0.80;;;;;;;-128.00;-1.00;-1.00;100146;1299;1003871;-24
2022/06/07 11:42:07;;;;;;;1.10;0.80;;;;;;;-128.00;-1.00;-1.00;100126;1299;1003711;-27
2022/06/07 11:44:41;;;;;;;2.00;1.00;;;;;;;-128.00;-1.00;-1.00;100142;1299;1004284;-28
2022/06/07 11:47:10;;;;;;;1.50;0.60;;;;;;;-128.00;-1.00;-1.00;100092;1299;1003827;-28
2022/06/07 11:49:42;;;;;;;1.70;1.20;;;;;;;-128.00;-1.00;-1.00;100147;1299;1004294;-28
2022/06/07 11:52:11;;;;;;;0.50;0.50;;;;;;;-128.00;-1.00;-1.00;100197;1299;1004704;-24
2022/06/07 11:54:54;;;;;;;1.90;0.60;;;;;;;-128.00;-1.00;-1.00;100111;1299;1004035;-24
2022/06/07 11:57:30;;;;;;;1.30;0.90;;;;;;;-128.00;-1.00;-1.00;100171;1299;1003513;-24
2022/06/07 12:00:05;;;;;;;1.30;1.00;;;;;;;-128.00;-1.00;-1.00;100124;1299;1003070;-27
2022/06/07 12:02:36;;;;;;;0.80;0.70;;;;;;;-128.00;-1.00;-1.00;100184;1299;1003709;-24
2022/06/07 12:05:10;;;;;;;1.00;0.70;;;;;;;-128.00;-1.00;-1.00;100145;1299;1004167;-24
2022/06/07 12:07:47;;;;;;;1.50;1.20;;;;;;;-128.00;-1.00;-1.00;100097;1299;1003747;-24
2022/06/07 12:10:35;;;;;;;1.00;1.00;;;;;;;-128.00;-1.00;-1.00;100111;1299;1004157;-24
2022/06/07 12:13:11;;;;;;;2.00;1.10;;;;;;;-128.00;-1.00;-1.00;100156;1299;1003702;-27